Time;durP1;ratioP1;P1;durP2;ratioP2;P2;SDS_P1;SDS_P2;PMS_P1;PMS_P2;Temp;Humidity;BMP_temperature;BMP_pressure;BME280_temperature;BME280_humidity;BME280_pressure;Samples;Min_cycle;Max_cycle;Signal;HPM_P1;HPM_P2
2022/10/26 00:00:04;;;;;;;42.25;19.60;;;9.20;99.90;;;;;;5072848;28;20048;-28
2022/10/26 00:02:29;;;;;;;42.33;18.98;;;9.20;99.90;;;;;;5073983;28;20040;-31
2022/10/26 00:04:55;;;;;;;45.75;20.33;;;9.20;99.90;;;;;;5073686;28;20052;-28
2022/10/26 00:07:21;;;;;;;38.50;19.35;;;9.20;99.90;;;;;;5073987;28;20070;-29
2022/10/26 00:09:46;;;;;;;42.10;19.90;;;9.10;99.90;;;;;;5073977;28;20040;-29
2022/10/26 00:12:12;;;;;;;46.20;19.85;;;9.20;99.90;;;;;;5073916;28;20052;-29
2022/10/26 00:14:38;;;;;;;45.58;21.75;;;9.10;99.90;;;;;;5072732;28;20080;-29
2022/10/26 00:17:03;;;;;;;53.65;20.05;;;9.20;99.90;;;;;;5073884;28;20611;-29
2022/10/26 00:19:32;;;;;;;43.38;19.70;;;9.20;99.90;;;;;;5073768;28;20049;-29
2022/10/26 00:21:58;;;;;;;45.22;20.70;;;9.10;99.90;;;;;;5073197;28;20040;-29
2022/10/26 00:24:23;;;;;;;44.40;19.90;;;9.20;99.90;;;;;;5073887;28;20053;-29
2022/10/26 00:26:49;;;;;;;43.80;20.77;;;9.10;99.90;;;;;;5073474;28;20045;-29
2022/10/26 00:29:17;;;;;;;40.55;19.58;;;9.10;99.90;;;;;;5074287;28;20048;-28
2022/10/26 00:31:43;;;;;;;36.53;19.10;;;9.10;99.90;;;;;;5074266;28;20052;-29
2022/10/26 00:34:10;;;;;;;44.10;19.83;;;9.10;99.90;;;;;;5073688;28;20062;-29
2022/10/26 00:36:37;;;;;;;42.65;20.80;;;9.00;99.90;;;;;;5073331;28;20487;-28
2022/10/26 00:39:03;;;;;;;44.55;20.90;;;9.00;99.90;;;;;;5073881;28;20099;-28
2022/10/26 00:41:32;;;;;;;46.00;20.90;;;9.10;99.90;;;;;;5073367;28;20510;-29
2022/10/26 00:43:59;;;;;;;52.70;22.60;;;9.00;99.90;;;;;;5073561;28;20490;-29
2022/10/26 00:46:30;;;;;;;39.50;19.52;;;9.00;99.90;;;;;;5074120;28;20043;-29
2022/10/26 00:49:00;;;;;;;39.67;18.23;;;9.00;99.90;;;;;;5074426;28;20040;-28
2022/10/26 00:51:55;;;;;;;40.40;19.77;;;9.00;99.90;;;;;;5073606;28;20040;-29
2022/10/26 00:54:21;;;;;;;42.65;21.40;;;9.10;99.90;;;;;;5059731;28;20056;-29
2022/10/26 00:56:50;;;;;;;44.95;20.30;;;9.10;99.90;;;;;;5073497;28;20041;-28
2022/10/26 00:59:16;;;;;;;44.50;21.98;;;9.10;99.90;;;;;;5073663;28;20048;-28
2022/10/26 01:01:45;;;;;;;40.08;20.33;;;9.10;99.90;;;;;;5073462;28;20090;-28
2022/10/26 01:04:13;;;;;;;47.90;21.73;;;9.20;99.90;;;;;;5072149;28;20398;-29
2022/10/26 01:06:40;;;;;;;48.22;20.45;;;9.10;99.90;;;;;;5073371;28;20465;-29
2022/10/26 01:09:06;;;;;;;40.25;20.60;;;9.10;99.90;;;;;;5073359;28;20049;-29
2022/10/26 01:11:32;;;;;;;46.60;21.23;;;9.10;99.90;;;;;;5073585;28;20190;-29
2022/10/26 01:14:01;;;;;;;52.67;22.05;;;9.10;99.90;;;;;;5073332;28;20481;-28
2022/10/26 01:16:35;;;;;;;46.55;21.38;;;9.10;99.90;;;;;;5073281;28;20433;-29
2022/10/26 01:19:22;;;;;;;48.53;21.85;;;9.10;99.90;;;;;;5073976;28;20045;-28
2022/10/26 01:22:13;;;;;;;46.45;22.10;;;9.10;99.90;;;;;;5074089;28;20080;-28
2022/10/26 01:24:51;;;;;;;40.72;20.50;;;9.00;99.90;;;;;;5073232;28;20094;-28
2022/10/26 01:27:22;;;;;;;51.85;22.48;;;8.90;99.90;;;;;;5073759;28;20088;-28
2022/10/26 01:30:09;;;;;;;55.15;24.20;;;8.90;99.90;;;;;;5073996;28;20074;-28
2022/10/26 01:32:55;;;;;;;40.90;20.52;;;8.80;99.90;;;;;;5073184;28;20048;-29
2022/10/26 01:35:28;;;;;;;48.08;22.38;;;8.80;99.90;;;;;;5072774;28;20431;-28
2022/10/26 01:38:03;;;;;;;48.35;21.63;;;8.70;99.90;;;;;;5073170;28;20047;-29
2022/10/26 01:41:01;;;;;;;46.05;23.00;;;8.70;99.90;;;;;;5072225;28;20391;-29
2022/10/26 01:43:32;;;;;;;62.47;24.33;;;8.70;99.90;;;;;;5071553;28;20044;-29
2022/10/26 01:45:59;;;;;;;53.65;23.25;;;8.60;99.90;;;;;;5073060;28;20048;-30
2022/10/26 01:48:26;;;;;;;45.83;23.00;;;8.60;99.90;;;;;;5073830;28;20403;-29
2022/10/26 01:50:53;;;;;;;47.15;22.60;;;8.50;99.90;;;;;;5076648;28;20127;-28
2022/10/26 01:53:19;;;;;;;52.70;23.35;;;8.50;99.90;;;;;;5076536;28;20044;-29
2022/10/26 01:55:53;;;;;;;48.17;23.35;;;8.50;99.90;;;;;;5076499;28;20136;-29
2022/10/26 01:58:37;;;;;;;56.13;25.17;;;8.40;99.90;;;;;;5075655;28;20052;-29
2022/10/26 02:01:41;;;;;;;53.75;23.92;;;8.40;99.90;;;;;;5076434;28;20052;-28
2022/10/26 02:04:12;;;;;;;45.92;21.55;;;8.30;99.90;;;;;;5076271;28;20059;-29
2022/10/26 02:06:50;;;;;;;49.72;23.95;;;8.30;99.90;;;;;;5076910;28;20533;-29
2022/10/26 02:09:41;;;;;;;51.13;24.45;;;8.20;99.90;;;;;;5075111;28;20048;-28
2022/10/26 02:12:43;;;;;;;60.53;25.80;;;8.20;99.90;;;;;;5076248;28;20087;-29
2022/10/26 02:15:26;;;;;;;63.75;26.40;;;8.20;99.90;;;;;;5076076;28;20056;-28
2022/10/26 02:18:10;;;;;;;61.42;25.38;;;8.20;99.90;;;;;;5076129;28;20131;-29
2022/10/26 02:20:42;;;;;;;54.45;24.65;;;8.20;99.90;;;;;;5076940;28;20402;-28
2022/10/26 02:23:11;;;;;;;52.25;25.30;;;8.20;99.90;;;;;;5076074;28;20044;-28
2022/10/26 02:25:44;;;;;;;56.72;26.10;;;8.20;99.90;;;;;;5075244;28;20045;-28
2022/10/26 02:28:14;;;;;;;60.10;25.80;;;8.00;99.90;;;;;;5057721;28;20045;-29
2022/10/26 02:30:42;;;;;;;64.15;27.58;;;7.90;99.90;;;;;;5074590;28;20402;-29
2022/10/26 02:33:12;;;;;;;70.63;28.60;;;8.10;99.90;;;;;;5076076;28;20052;-29
2022/10/26 02:35:41;;;;;;;68.82;28.65;;;8.00;99.90;;;;;;5076373;28;20390;-28
2022/10/26 02:38:10;;;;;;;68.50;27.30;;;8.00;99.90;;;;;;5076185;28;20056;-29
2022/10/26 02:40:37;;;;;;;78.50;28.27;;;8.00;99.90;;;;;;5057787;28;20065;-28
2022/10/26 02:43:11;;;;;;;73.88;30.27;;;7.80;99.90;;;;;;5076416;28;20123;-28
2022/10/26 02:45:46;;;;;;;65.90;26.77;;;7.80;99.90;;;;;;5076192;28;20044;-29
2022/10/26 02:48:13;;;;;;;73.32;26.98;;;7.80;99.90;;;;;;5076104;28;20098;-29
2022/10/26 02:51:13;;;;;;;64.68;26.33;;;7.70;99.90;;;;;;5076015;28;20055;-28
2022/10/26 02:54:00;;;;;;;68.88;26.55;;;7.70;99.90;;;;;;5057475;28;20460;-29
2022/10/26 02:56:45;;;;;;;59.95;25.92;;;7.60;99.90;;;;;;5074440;28;20433;-28
2022/10/26 02:59:12;;;;;;;68.13;26.70;;;7.70;99.90;;;;;;5075069;28;20498;-28
2022/10/26 03:01:39;;;;;;;72.60;27.63;;;7.60;99.90;;;;;;5076082;28;20045;-28
2022/10/26 03:04:05;;;;;;;65.55;27.63;;;7.60;99.90;;;;;;5075368;28;20052;-28
2022/10/26 03:06:31;;;;;;;70.78;28.00;;;7.70;99.90;;;;;;5073933;28;20527;-28
2022/10/26 03:08:57;;;;;;;67.57;26.23;;;7.60;99.90;;;;;;5075071;28;20090;-29
2022/10/26 03:11:22;;;;;;;64.35;26.23;;;7.70;99.90;;;;;;5075623;28;20557;-28
2022/10/26 03:13:48;;;;;;;66.93;26.85;;;7.60;99.90;;;;;;5074980;28;20049;-29
2022/10/26 03:16:14;;;;;;;82.70;28.27;;;7.60;99.90;;;;;;5074631;28;20045;-28
2022/10/26 03:18:39;;;;;;;69.40;27.65;;;7.70;99.90;;;;;;5075099;28;20041;-28
2022/10/26 03:21:05;;;;;;;80.20;28.73;;;7.70;99.90;;;;;;5073723;28;20539;-28
2022/10/26 03:23:31;;;;;;;84.57;30.13;;;7.60;99.90;;;;;;5074825;28;20040;-29
2022/10/26 03:25:57;;;;;;;69.40;29.00;;;7.70;99.90;;;;;;5075307;28;20049;-29
2022/10/26 03:28:23;;;;;;;71.97;28.25;;;7.80;99.90;;;;;;5074709;28;20482;-28
2022/10/26 03:30:49;;;;;;;62.17;26.73;;;7.70;99.90;;;;;;5073709;28;20055;-28
2022/10/26 03:33:15;;;;;;;74.00;29.00;;;7.60;99.90;;;;;;5074626;28;20590;-28
2022/10/26 03:35:40;;;;;;;66.40;28.58;;;7.80;99.90;;;;;;5074579;28;20056;-31
2022/10/26 03:38:06;;;;;;;83.07;31.83;;;7.80;99.90;;;;;;5075039;28;20055;-29
2022/10/26 03:40:32;;;;;;;83.53;30.50;;;7.90;99.90;;;;;;5074550;28;20095;-28
2022/10/26 03:42:58;;;;;;;75.07;30.90;;;7.80;99.90;;;;;;5074438;28;20044;-29
2022/10/26 03:45:23;;;;;;;75.53;30.17;;;7.80;99.90;;;;;;5074928;28;20538;-30
2022/10/26 03:47:49;;;;;;;83.03;31.98;;;7.90;99.90;;;;;;5073766;28;20048;-28
2022/10/26 03:50:18;;;;;;;84.53;32.50;;;7.90;99.90;;;;;;5056374;28;20075;-28
2022/10/26 03:52:43;;;;;;;73.32;30.15;;;8.00;99.90;;;;;;5074223;28;20040;-28
2022/10/26 03:55:09;;;;;;;88.50;31.42;;;7.90;99.90;;;;;;5074211;28;20044;-28
2022/10/26 03:57:42;;;;;;;73.30;30.67;;;8.00;99.90;;;;;;5074146;28;20041;-28
2022/10/26 04:00:10;;;;;;;67.43;29.35;;;8.00;99.90;;;;;;5073714;28;20107;-28
2022/10/26 04:02:36;;;;;;;76.03;28.65;;;7.90;99.90;;;;;;5073930;28;20131;-28
2022/10/26 04:05:01;;;;;;;70.80;30.08;;;7.90;99.90;;;;;;5074056;28;20123;-28
2022/10/26 04:07:27;;;;;;;71.00;29.75;;;8.00;99.90;;;;;;5074566;28;20113;-28
2022/10/26 04:09:53;;;;;;;66.20;28.85;;;8.10;99.90;;;;;;5074532;28;20036;-28
2022/10/26 04:12:18;;;;;;;76.18;28.90;;;7.90;99.90;;;;;;5073409;28;20052;-28
2022/10/26 04:14:44;;;;;;;74.40;30.17;;;8.00;99.90;;;;;;5073900;28;20040;-28
2022/10/26 04:17:09;;;;;;;65.95;28.30;;;7.90;99.90;;;;;;5073859;28;20159;-28
2022/10/26 04:19:35;;;;;;;72.15;30.77;;;8.00;99.90;;;;;;5073785;28;20048;-28
2022/10/26 04:22:01;;;;;;;63.72;28.67;;;8.20;99.90;;;;;;5072343;28;20049;-29
2022/10/26 04:24:26;;;;;;;62.53;28.30;;;8.00;99.90;;;;;;5056027;28;20048;-29
2022/10/26 04:26:52;;;;;;;73.97;30.52;;;8.00;99.90;;;;;;5073803;28;20048;-28
2022/10/26 04:29:18;;;;;;;66.15;28.00;;;8.00;99.90;;;;;;5072897;28;20036;-28
2022/10/26 04:31:43;;;;;;;71.85;29.92;;;8.10;99.90;;;;;;5073720;28;20052;-28
2022/10/26 04:34:09;;;;;;;76.75;31.02;;;8.00;99.90;;;;;;5073725;28;20446;-28
2022/10/26 04:36:35;;;;;;;55.83;26.83;;;8.10;99.90;;;;;;5073661;28;20063;-28
2022/10/26 04:39:01;;;;;;;72.63;29.25;;;8.20;99.90;;;;;;5072246;28;20057;-28
2022/10/26 04:41:26;;;;;;;65.75;29.73;;;8.10;99.90;;;;;;5072500;28;20059;-28
2022/10/26 04:43:52;;;;;;;72.18;29.83;;;8.40;99.90;;;;;;5055978;28;20131;-28
2022/10/26 04:46:18;;;;;;;69.25;30.83;;;8.20;99.90;;;;;;5039302;28;20044;-28
2022/10/26 04:48:43;;;;;;;62.97;28.50;;;8.30;99.90;;;;;;5073419;28;20091;-28
2022/10/26 04:51:09;;;;;;;70.10;31.80;;;8.40;99.90;;;;;;5074042;28;20068;-28
2022/10/26 04:53:35;;;;;;;73.25;30.20;;;8.40;99.90;;;;;;5072333;28;20078;-28
2022/10/26 04:56:01;;;;;;;76.13;30.73;;;8.60;99.90;;;;;;5072776;28;20048;-28
2022/10/26 04:58:27;;;;;;;68.38;29.85;;;8.50;99.90;;;;;;5073351;28;20482;-29
2022/10/26 05:00:53;;;;;;;66.15;29.92;;;8.60;99.90;;;;;;5074261;28;20052;-28
2022/10/26 05:03:19;;;;;;;79.40;31.23;;;8.60;99.90;;;;;;5072086;28;20379;-29
2022/10/26 05:05:46;;;;;;;65.10;30.67;;;8.60;99.90;;;;;;5039411;28;20047;-28
2022/10/26 05:08:13;;;;;;;73.78;29.55;;;8.70;99.90;;;;;;5072395;28;20040;-28
2022/10/26 05:10:39;;;;;;;70.60;28.67;;;8.70;99.90;;;;;;5073362;28;20467;-28
2022/10/26 05:13:04;;;;;;;73.63;29.95;;;8.70;99.90;;;;;;5073312;28;20131;-28
2022/10/26 05:15:30;;;;;;;70.18;29.27;;;8.80;99.90;;;;;;5072134;28;20123;-28
2022/10/26 05:18:01;;;;;;;66.93;28.95;;;8.80;99.90;;;;;;5073022;28;20044;-28
2022/10/26 05:20:30;;;;;;;64.15;29.25;;;8.90;99.90;;;;;;5072091;28;20106;-29
2022/10/26 05:23:00;;;;;;;68.43;30.70;;;9.00;99.90;;;;;;5073640;28;20049;-28
2022/10/26 05:25:28;;;;;;;59.42;28.08;;;8.80;99.90;;;;;;5077073;28;20139;-29
2022/10/26 05:27:59;;;;;;;66.57;29.33;;;8.80;99.90;;;;;;5076436;28;20044;-28
2022/10/26 05:30:25;;;;;;;72.65;29.75;;;8.90;99.90;;;;;;5076290;28;20051;-29
2022/10/26 05:32:55;;;;;;;60.80;27.20;;;8.90;99.90;;;;;;5076517;28;20037;-29
2022/10/26 05:35:20;;;;;;;73.07;31.05;;;8.90;99.90;;;;;;5076814;28;20044;-28
2022/10/26 05:37:46;;;;;;;69.90;31.98;;;8.90;99.90;;;;;;5076846;28;20048;-28
2022/10/26 05:40:12;;;;;;;77.32;32.85;;;9.00;99.90;;;;;;5076125;28;20064;-28
2022/10/26 05:42:37;;;;;;;60.65;28.60;;;9.00;99.90;;;;;;5076777;28;20513;-29
2022/10/26 05:45:03;;;;;;;67.03;30.80;;;9.00;99.90;;;;;;5077523;28;20375;-28
2022/10/26 05:47:29;;;;;;;69.95;31.83;;;8.90;99.90;;;;;;5076339;28;20135;-29
2022/10/26 05:49:55;;;;;;;81.88;32.72;;;9.00;99.90;;;;;;5077187;28;20047;-28
2022/10/26 05:52:20;;;;;;;72.47;31.52;;;9.10;99.90;;;;;;5076570;28;20053;-28
2022/10/26 05:54:46;;;;;;;66.65;30.70;;;9.00;99.90;;;;;;5076808;28;20080;-29
2022/10/26 05:57:12;;;;;;;60.55;30.50;;;9.10;99.90;;;;;;5076150;28;20072;-29
2022/10/26 05:59:38;;;;;;;73.28;32.22;;;9.00;99.90;;;;;;5076348;28;20037;-28
2022/10/26 06:02:26;;;;;;;66.70;33.03;;;9.10;99.90;;;;;;5076102;28;20394;-29
2022/10/26 06:04:55;;;;;;;60.72;29.58;;;9.10;99.90;;;;;;5076362;28;20045;-28
2022/10/26 06:07:21;;;;;;;78.07;32.85;;;9.10;99.90;;;;;;5076258;28;20547;-29
2022/10/26 06:09:48;;;;;;;66.20;31.23;;;9.20;99.90;;;;;;5077095;28;20041;-28
2022/10/26 06:12:14;;;;;;;69.00;31.10;;;9.20;99.90;;;;;;5076240;28;20052;-28
2022/10/26 06:14:40;;;;;;;70.65;30.13;;;9.20;99.90;;;;;;5075194;28;20466;-28
2022/10/26 06:17:12;;;;;;;59.50;30.20;;;9.30;99.90;;;;;;5076165;28;20421;-30
2022/10/26 06:19:46;;;;;;;61.67;31.42;;;9.30;99.90;;;;;;5076013;28;20053;-28
2022/10/26 06:22:48;;;;;;;62.40;31.13;;;9.30;99.90;;;;;;5076064;28;20053;-28
2022/10/26 06:25:24;;;;;;;57.53;27.63;;;9.40;99.90;;;;;;5073441;28;20056;-28
2022/10/26 06:28:06;;;;;;;68.68;28.73;;;9.40;99.90;;;;;;5075924;28;20127;-28
2022/10/26 06:30:32;;;;;;;62.70;28.35;;;9.40;99.90;;;;;;5075899;28;20044;-28
2022/10/26 06:33:00;;;;;;;59.00;27.50;;;9.50;99.90;;;;;;5075880;28;20086;-28
2022/10/26 06:35:44;;;;;;;52.72;27.08;;;9.50;99.90;;;;;;5073959;28;20048;-28
2022/10/26 06:38:14;;;;;;;52.65;26.67;;;9.60;99.90;;;;;;5076452;28;20054;-29
2022/10/26 06:40:42;;;;;;;47.33;26.23;;;9.60;99.90;;;;;;5076797;28;20049;-28
2022/10/26 06:43:29;;;;;;;52.88;26.83;;;9.60;99.90;;;;;;5075648;28;20048;-28
2022/10/26 06:46:21;;;;;;;44.60;24.45;;;9.70;99.90;;;;;;5074327;28;20578;-28
2022/10/26 06:49:11;;;;;;;47.55;24.90;;;9.70;99.90;;;;;;5076128;28;20394;-28
2022/10/26 06:52:08;;;;;;;52.60;24.63;;;9.70;99.90;;;;;;5075594;28;20098;-28
2022/10/26 06:54:48;;;;;;;46.03;24.48;;;9.70;99.90;;;;;;5060852;28;20052;-28
2022/10/26 06:57:16;;;;;;;45.35;23.80;;;9.80;99.90;;;;;;5074522;28;20067;-29
2022/10/26 06:59:47;;;;;;;43.33;24.73;;;9.80;99.90;;;;;;5073714;28;20131;-28
2022/10/26 07:02:13;;;;;;;44.75;24.75;;;9.90;99.90;;;;;;5075539;28;20045;-29
2022/10/26 07:04:40;;;;;;;45.30;22.85;;;9.90;99.90;;;;;;5075034;28;20045;-29
2022/10/26 07:07:08;;;;;;;43.38;23.38;;;9.90;99.90;;;;;;5074000;28;20041;-28
2022/10/26 07:09:34;;;;;;;42.92;23.02;;;10.00;99.90;;;;;;5057562;28;20055;-29
2022/10/26 07:12:00;;;;;;;38.47;23.90;;;10.00;99.90;;;;;;5075378;28;20127;-29
2022/10/26 07:14:26;;;;;;;35.00;22.08;;;10.10;99.90;;;;;;5074029;28;20048;-28
2022/10/26 07:16:53;;;;;;;40.80;22.52;;;10.10;99.90;;;;;;5073720;28;20098;-29
2022/10/26 07:19:19;;;;;;;37.70;22.85;;;10.10;99.90;;;;;;5075468;28;20056;-29
2022/10/26 07:21:44;;;;;;;41.95;22.45;;;10.20;99.90;;;;;;5075378;28;20040;-28
2022/10/26 07:24:10;;;;;;;34.65;20.75;;;10.30;99.90;;;;;;5073561;28;20067;-28
2022/10/26 07:26:36;;;;;;;37.75;21.02;;;10.20;99.90;;;;;;5074783;28;20052;-29
2022/10/26 07:29:02;;;;;;;35.95;20.20;;;10.40;99.90;;;;;;5074603;28;20056;-29
2022/10/26 07:31:27;;;;;;;36.88;20.05;;;10.40;99.90;;;;;;5074346;28;20117;-29
2022/10/26 07:33:53;;;;;;;38.15;19.75;;;10.50;99.90;;;;;;5075087;28;20568;-29
2022/10/26 07:36:19;;;;;;;33.45;19.00;;;10.50;99.90;;;;;;5073640;28;20053;-28
2022/10/26 07:38:45;;;;;;;29.67;18.92;;;10.60;99.90;;;;;;5074192;28;20047;-29
2022/10/26 07:41:10;;;;;;;31.75;19.48;;;10.80;99.90;;;;;;5073369;28;20064;-28
2022/10/26 07:43:37;;;;;;;30.17;17.48;;;10.70;99.90;;;;;;5075004;28;20101;-28
2022/10/26 07:46:03;;;;;;;26.25;16.73;;;10.70;99.90;;;;;;5073559;28;20056;-29
2022/10/26 07:48:28;;;;;;;28.00;16.33;;;10.80;99.90;;;;;;5074389;28;20052;-29
2022/10/26 07:50:54;;;;;;;25.38;16.77;;;10.90;99.90;;;;;;5073077;28;20048;-29
2022/10/26 07:53:22;;;;;;;24.02;15.93;;;11.00;99.90;;;;;;5074339;28;20044;-29
2022/10/26 07:55:55;;;;;;;24.65;15.07;;;11.10;99.90;;;;;;5074230;28;20116;-29
2022/10/26 07:58:26;;;;;;;24.70;14.77;;;11.10;99.90;;;;;;5074218;28;20052;-30
2022/10/26 08:00:52;;;;;;;24.13;13.57;;;11.20;99.90;;;;;;5073021;28;20079;-29
2022/10/26 08:03:21;;;;;;;22.83;13.65;;;11.30;99.90;;;;;;5074048;28;20078;-29
2022/10/26 08:05:50;;;;;;;18.92;12.63;;;11.30;99.90;;;;;;5073776;28;20491;-29
2022/10/26 08:08:21;;;;;;;20.92;12.52;;;11.40;99.90;;;;;;5072791;28;20060;-29
2022/10/26 08:10:47;;;;;;;19.73;11.82;;;11.50;99.90;;;;;;5074326;28;20493;-29
2022/10/26 08:13:13;;;;;;;16.83;11.35;;;11.50;99.90;;;;;;5072839;28;20090;-29
2022/10/26 08:15:39;;;;;;;20.33;11.13;;;11.60;99.90;;;;;;5073914;28;20060;-29
2022/10/26 08:18:05;;;;;;;21.00;11.48;;;11.70;99.90;;;;;;5073926;28;20075;-29
2022/10/26 08:20:33;;;;;;;14.75;10.38;;;11.80;99.90;;;;;;5073192;28;20044;-29
2022/10/26 08:23:00;;;;;;;18.17;10.40;;;11.80;99.90;;;;;;5072697;28;20113;-28
2022/10/26 08:25:26;;;;;;;15.13;9.73;;;11.90;99.90;;;;;;5073805;28;20098;-29
2022/10/26 08:27:53;;;;;;;17.75;11.07;;;12.00;99.90;;;;;;5073780;28;20080;-29
2022/10/26 08:30:18;;;;;;;18.23;9.88;;;12.10;99.90;;;;;;5073753;28;20048;-29
2022/10/26 08:32:44;;;;;;;14.27;9.45;;;12.20;99.90;;;;;;5073415;28;20131;-29
2022/10/26 08:35:10;;;;;;;16.88;9.90;;;12.20;99.90;;;;;;5073733;28;20048;-28
2022/10/26 08:37:36;;;;;;;10.30;8.20;;;12.20;99.90;;;;;;5072465;28;20368;-29
2022/10/26 08:40:05;;;;;;;15.57;8.48;;;12.20;99.90;;;;;;5073505;28;20066;-29
2022/10/26 08:42:42;;;;;;;20.70;9.57;;;12.20;99.90;;;;;;5073883;28;20394;-29
2022/10/26 08:45:23;;;;;;;18.63;8.32;;;12.40;99.90;;;;;;5073718;28;20052;-29
2022/10/26 08:47:54;;;;;;;15.60;7.57;;;12.40;99.90;;;;;;5074407;28;20048;-30
2022/10/26 08:50:41;;;;;;;12.10;7.57;;;12.60;99.90;;;;;;5074224;28;20049;-29
2022/10/26 08:53:17;;;;;;;11.07;6.93;;;12.70;99.90;;;;;;5073441;28;20049;-29
2022/10/26 08:55:50;;;;;;;13.15;7.30;;;12.90;99.90;;;;;;5083969;28;20058;-28
2022/10/26 08:58:24;;;;;;;10.45;6.68;;;13.00;99.90;;;;;;5095317;28;20040;-29
2022/10/26 09:00:51;;;;;;;9.60;6.63;;;13.10;99.90;;;;;;5096930;28;20481;-29
2022/10/26 09:03:18;;;;;;;9.55;5.85;;;13.30;99.90;;;;;;5096777;28;20044;-30
2022/10/26 09:05:58;;;;;;;10.57;6.07;;;13.40;99.90;;;;;;5097780;28;20058;-29
2022/10/26 09:08:44;;;;;;;11.40;4.95;;;13.50;99.90;;;;;;5097854;28;20048;-29
2022/10/26 09:11:13;;;;;;;11.90;5.07;;;;;;;;;;5097693;28;20122;-30
2022/10/26 09:14:07;;;;;;;7.55;3.83;;;14.90;99.90;;;;;;5097680;28;20051;-29
2022/10/26 09:17:01;;;;;;;16.90;3.97;;;15.50;99.90;;;;;;5098169;28;20090;-29
2022/10/26 09:20:03;;;;;;;11.82;4.38;;;15.70;99.90;;;;;;5097112;28;20040;-29
2022/10/26 09:22:49;;;;;;;6.05;3.42;;;16.70;99.90;;;;;;5097435;28;20489;-29
2022/10/26 09:25:21;;;;;;;7.80;3.03;;;16.70;99.90;;;;;;5096806;28;20409;-29
2022/10/26 09:28:00;;;;;;;6.32;2.90;;;17.30;99.90;;;;;;5097407;28;20079;-29
2022/10/26 09:30:26;;;;;;;13.02;3.47;;;17.70;99.90;;;;;;5098199;28;20036;-30
2022/10/26 09:33:01;;;;;;;5.05;2.70;;;17.70;99.90;;;;;;5097341;28;20083;-29
2022/10/26 09:35:59;;;;;;;13.90;2.58;;;17.90;99.90;;;;;;5097226;28;20040;-29
2022/10/26 09:38:40;;;;;;;11.55;2.78;;;18.10;99.90;;;;;;5085073;28;20138;-29
2022/10/26 09:41:12;;;;;;;8.80;2.53;;;18.30;1.00;;;;;;5096966;28;20135;-30
2022/10/26 09:44:11;;;;;;;8.27;2.60;;;18.50;43.70;;;;;;5095995;28;20087;-29
2022/10/26 09:47:12;;;;;;;7.57;2.42;;;18.30;99.90;;;;;;5097033;28;20059;-29
2022/10/26 09:49:50;;;;;;;35.28;4.18;;;18.40;1.00;;;;;;5092552;28;20048;-29
2022/10/26 09:52:16;;;;;;;10.23;2.60;;;18.50;37.70;;;;;;5096941;28;20059;-30
2022/10/26 09:54:42;;;;;;;5.43;2.10;;;18.50;99.90;;;;;;5096825;28;20048;-29
2022/10/26 09:57:08;;;;;;;8.80;2.38;;;18.60;99.90;;;;;;5096772;28;20055;-29
2022/10/26 09:59:39;;;;;;;5.03;2.72;;;18.80;99.90;;;;;;5096646;28;20040;-29
2022/10/26 10:02:42;;;;;;;7.45;2.17;;;18.70;1.00;;;;;;5097272;28;20075;-29
2022/10/26 10:05:23;;;;;;;;;;;18.90;99.90;;;;;;5097392;28;20040;-30
2022/10/26 10:07:48;;;;;;;11.50;2.90;;;19.00;99.90;;;;;;5096610;28;20010;-30
2022/10/26 10:10:17;;;;;;;6.80;2.38;;;19.30;1.00;;;;;;5095612;28;20071;-29
2022/10/26 10:12:44;;;;;;;10.30;2.40;;;19.00;99.90;;;;;;5096507;28;20040;-29
2022/10/26 10:15:28;;;;;;;16.67;3.50;;;19.00;99.90;;;;;;5095825;28;20056;-30
2022/10/26 10:17:56;;;;;;;7.05;2.03;;;18.80;1.00;;;;;;5097014;28;20047;-29
2022/10/26 10:20:50;;;;;;;12.82;2.88;;;19.00;1.00;;;;;;5095887;28;20044;-29
2022/10/26 10:23:28;;;;;;;;;;;19.10;99.90;;;;;;5096654;28;20091;-30
2022/10/26 10:26:03;;;;;;;5.32;2.42;;;18.70;1.00;;;;;;5096214;28;19927;-29
2022/10/26 10:28:30;;;;;;;12.95;2.78;;;18.10;99.90;;;;;;5096272;28;20055;-29
2022/10/26 10:30:58;;;;;;;5.65;2.58;;;17.40;99.90;;;;;;5096102;28;20047;-29
2022/10/26 10:33:41;;;;;;;7.53;2.88;;;17.30;99.90;;;;;;5096117;28;20055;-29
2022/10/26 10:36:10;;;;;;;10.85;3.47;;;17.10;1.00;;;;;;5096906;28;20132;-30
2022/10/26 10:38:42;;;;;;;13.00;3.42;;;16.90;99.90;;;;;;5094949;28;20091;-29
2022/10/26 10:41:29;;;;;;;7.68;3.22;;;16.80;99.90;;;;;;5095860;28;20069;-29
2022/10/26 10:44:19;;;;;;;13.07;3.35;;;16.80;1.00;;;;;;5096760;28;20051;-29
2022/10/26 10:46:46;;;;;;;8.25;3.50;;;16.80;99.90;;;;;;5095845;28;20036;-29
2022/10/26 10:49:22;;;;;;;10.65;3.00;;;16.70;1.00;;;;;;5095801;28;20040;-30
2022/10/26 10:51:48;;;;;;;6.45;2.70;;;16.70;99.90;;;;;;5096633;28;20040;-29
2022/10/26 10:54:20;;;;;;;8.45;3.53;;;16.70;99.90;;;;;;5095809;28;20052;-31
2022/10/26 10:56:56;;;;;;;6.03;3.00;;;16.80;99.90;;;;;;5095747;28;20047;-29
2022/10/26 10:59:47;;;;;;;6.28;2.70;;;16.90;1.00;;;;;;5096160;28;20051;-29
2022/10/26 11:02:33;;;;;;;9.18;2.60;;;17.10;99.90;;;;;;5095640;28;20040;-29
2022/10/26 11:05:35;;;;;;;8.32;2.53;;;17.30;99.90;;;;;;5096103;28;20050;-29
2022/10/26 11:08:04;;;;;;;3.58;2.08;;;17.50;99.90;;;;;;5096105;28;20050;-29
2022/10/26 11:10:35;;;;;;;7.22;2.40;;;17.70;99.90;;;;;;5077593;28;20130;-29
2022/10/26 11:13:11;;;;;;;6.30;2.20;;;17.90;95.90;;;;;;5095391;28;20477;-29
2022/10/26 11:15:43;;;;;;;9.98;2.67;;;18.30;40.50;;;;;;5095328;28;20051;-29
2022/10/26 11:18:29;;;;;;;14.32;2.97;;;18.50;99.90;;;;;;5095865;28;20409;-29
2022/10/26 11:21:16;;;;;;;7.13;2.30;;;18.50;99.90;;;;;;5095760;28;20105;-30
2022/10/26 11:24:05;;;;;;;5.05;1.48;;;18.50;1.00;;;;;;5095488;28;20043;-29
2022/10/26 11:26:52;;;;;;;6.82;2.20;;;18.40;99.90;;;;;;5095406;28;20040;-29
2022/10/26 11:29:39;;;;;;;9.13;2.38;;;18.30;1.00;;;;;;5095180;28;20127;-29
2022/10/26 11:32:18;;;;;;;7.68;2.85;;;18.40;99.90;;;;;;5094954;28;20040;-29
2022/10/26 11:35:05;;;;;;;6.78;2.13;;;18.40;99.90;;;;;;5095474;28;20386;-30
2022/10/26 11:37:56;;;;;;;8.07;1.85;;;18.40;99.90;;;;;;5094317;28;20406;-29
2022/10/26 11:40:53;;;;;;;7.47;1.98;;;18.30;16.50;;;;;;5094504;28;20056;-29
2022/10/26 11:43:39;;;;;;;6.07;2.10;;;18.20;16.20;;;;;;5093854;28;20104;-31
2022/10/26 11:46:27;;;;;;;5.53;2.85;;;18.30;99.90;;;;;;5094776;28;20135;-29
2022/10/26 11:49:12;;;;;;;12.82;2.45;;;18.40;1.00;;;;;;5094695;28;20043;-30
2022/10/26 11:51:50;;;;;;;9.68;2.22;;;18.40;99.90;;;;;;5094327;28;20436;-29
2022/10/26 11:54:19;;;;;;;5.75;2.20;;;18.40;99.90;;;;;;5094618;28;20087;-29
2022/10/26 11:56:48;;;;;;;7.32;2.25;;;18.50;99.90;;;;;;5094511;28;20402;-29
2022/10/26 11:59:24;;;;;;;8.07;2.20;;;18.50;1.00;;;;;;5093245;28;20379;-30
2022/10/26 12:01:54;;;;;;;9.73;1.98;;;18.50;99.90;;;;;;5076545;28;20490;-29
2022/10/26 12:04:25;;;;;;;6.18;1.90;;;18.50;1.00;;;;;;5094323;28;20044;-29
2022/10/26 12:06:53;;;;;;;5.28;2.10;;;18.60;1.00;;;;;;5094420;28;20090;-29
2022/10/26 12:09:39;;;;;;;8.80;2.33;;;18.70;99.90;;;;;;5093992;28;20473;-29
2022/10/26 12:12:45;;;;;;;6.38;1.90;;;18.90;1.00;;;;;;5094866;28;20047;-30
2022/10/26 12:15:54;;;;;;;7.40;2.10;;;19.30;99.90;;;;;;5094712;28;20474;-29
2022/10/26 12:18:42;;;;;;;7.75;2.45;;;19.50;99.90;;;;;;5092272;28;20063;-30
2022/10/26 12:21:09;;;;;;;8.38;2.20;;;19.40;1.00;;;;;;5094082;28;20052;-29
2022/10/26 12:23:57;;;;;;;8.15;2.35;;;19.50;99.90;;;;;;5094091;28;20040;-29
2022/10/26 12:26:22;;;;;;;8.60;3.00;;;19.70;1.00;;;;;;5076802;28;20493;-29
2022/10/26 12:29:03;;;;;;;7.43;2.00;;;19.90;99.90;;;;;;5093046;28;20052;-30
2022/10/26 12:31:35;;;;;;;21.15;4.00;;;20.00;99.90;;;;;;5093480;28;20067;-29
2022/10/26 12:34:09;;;;;;;8.45;2.75;;;19.90;1.00;;;;;;5094457;28;20438;-29
2022/10/26 12:36:56;;;;;;;10.60;2.47;;;19.50;99.90;;;;;;5085955;28;20040;-29
2022/10/26 12:39:36;;;;;;;9.50;2.20;;;18.90;99.90;;;;;;5080359;28;20063;-28
2022/10/26 12:42:13;;;;;;;8.52;2.40;;;18.50;99.50;;;;;;5079993;28;20090;-29
2022/10/26 12:44:44;;;;;;;5.95;2.30;;;18.40;1.00;;;;;;5079086;28;20422;-29
2022/10/26 12:47:32;;;;;;;5.35;2.30;;;18.30;99.90;;;;;;5078956;28;20040;-29
2022/10/26 12:50:03;;;;;;;13.50;2.55;;;18.30;99.90;;;;;;5081370;28;20043;-30
2022/10/26 12:52:52;;;;;;;7.97;2.70;;;18.30;1.00;;;;;;5082660;28;20058;-29
2022/10/26 12:55:36;;;;;;;5.97;2.25;;;18.50;99.90;;;;;;5081531;28;20040;-29
2022/10/26 12:58:33;;;;;;;9.60;3.58;;;18.80;1.00;;;;;;5093690;28;20044;-29
2022/10/26 13:00:58;;;;;;;10.43;3.75;;;19.00;99.90;;;;;;5091889;28;20048;-29
2022/10/26 13:03:46;;;;;;;4.93;3.00;;;19.00;1.00;;;;;;5079284;28;20146;-30
2022/10/26 13:06:17;;;;;;;12.02;3.83;;;19.10;2.70;;;;;;5091005;28;20052;-29
2022/10/26 13:08:42;;;;;;;9.10;3.45;;;18.80;1.00;;;;;;5080721;28;20069;-29